createdAt,value
2022-07-27T00:00:46.458Z,78074.69
2022-07-27T00:03:13.043Z,78076.78
2022-07-27T00:05:39.796Z,78076.78
2022-07-27T00:08:06.832Z,78076.78
2022-07-27T00:10:34.814Z,78070.53
2022-07-27T00:13:01.617Z,78072.63
2022-07-27T00:15:28.223Z,78072.63
2022-07-27T00:17:55.500Z,78078.88
2022-07-27T00:20:27.013Z,78083.06
2022-07-27T00:22:55.053Z,78083.06
2022-07-27T00:25:22.959Z,78076.78
2022-07-27T00:27:49.900Z,78078.88
2022-07-27T00:30:16.685Z,78083.06
2022-07-27T00:32:43.285Z,78085.16
2022-07-27T00:35:10.292Z,78089.34
2022-07-27T00:37:36.857Z,78089.34
2022-07-27T00:40:05.158Z,78087.25
2022-07-27T00:42:31.538Z,78089.34
2022-07-27T00:44:58.227Z,78083.06
2022-07-27T00:47:25.187Z,78089.34
2022-07-27T00:49:51.696Z,78089.34
2022-07-27T00:52:18.734Z,78087.25
2022-07-27T00:54:45.767Z,78087.25
2022-07-27T00:57:14.209Z,78089.34
2022-07-27T00:59:41.081Z,78091.44
2022-07-27T01:02:11.984Z,78091.44
2022-07-27T01:04:38.815Z,78095.59
2022-07-27T01:07:06.833Z,78095.59
2022-07-27T01:09:52.710Z,78097.69
2022-07-27T01:12:23.313Z,78097.69
2022-07-27T01:14:51.207Z,78097.69
2022-07-27T01:17:18.145Z,78099.78
2022-07-27T01:19:45.255Z,78106.06
2022-07-27T01:22:11.863Z,78103.97
2022-07-27T01:24:38.758Z,78106.06
2022-07-27T01:27:06.471Z,78101.88
2022-07-27T01:29:34.428Z,78106.06
2022-07-27T01:32:01.201Z,78114.44
2022-07-27T01:34:27.902Z,78106.06
2022-07-27T01:36:54.459Z,78112.34
2022-07-27T01:39:21.363Z,78110.25
2022-07-27T01:41:48.023Z,78112.34
2022-07-27T01:44:14.604Z,78116.50
2022-07-27T01:46:41.306Z,78120.69
2022-07-27T01:49:08.238Z,78122.78
2022-07-27T01:51:35.068Z,78124.88
2022-07-27T01:54:01.583Z,78124.88
2022-07-27T01:56:28.135Z,78126.97
2022-07-27T01:58:55.333Z,78131.16
2022-07-27T02:01:21.936Z,78131.16
2022-07-27T02:03:48.520Z,78129.06
2022-07-27T02:06:15.026Z,78139.50
2022-07-27T02:08:41.623Z,78135.31
2022-07-27T02:11:27.043Z,78133.25
2022-07-27T02:13:53.566Z,78135.31
2022-07-27T02:16:20.227Z,78135.31
2022-07-27T02:18:48.716Z,78137.41
2022-07-27T02:21:15.882Z,78141.59
2022-07-27T02:23:44.518Z,78141.59
2022-07-27T02:26:11.282Z,78139.50
2022-07-27T02:28:37.777Z,78129.06
2022-07-27T02:31:04.774Z,78133.25
2022-07-27T02:33:31.386Z,78129.06
2022-07-27T02:35:58.114Z,78137.41
2022-07-27T02:38:25.701Z,78143.69
2022-07-27T02:40:52.200Z,78145.78
2022-07-27T02:43:18.801Z,78145.78
2022-07-27T02:45:46.507Z,78149.97
2022-07-27T02:48:13.435Z,78145.78
2022-07-27T02:50:39.926Z,78147.88
2022-07-27T02:53:06.448Z,78149.97
2022-07-27T02:55:33.032Z,78152.06
2022-07-27T02:57:59.532Z,78145.78
2022-07-27T03:00:26.039Z,78149.97
2022-07-27T03:02:52.588Z,78145.78
2022-07-27T03:05:19.286Z,78154.16
2022-07-27T03:07:45.891Z,78158.31
2022-07-27T03:10:12.483Z,78162.50
2022-07-27T03:12:39.015Z,78162.50
2022-07-27T03:15:05.895Z,78172.97
2022-07-27T03:17:33.034Z,78172.97
2022-07-27T03:19:59.866Z,78168.78
2022-07-27T03:22:30.588Z,78172.97
2022-07-27T03:24:57.325Z,78177.13
2022-07-27T03:27:23.807Z,78177.13
2022-07-27T03:29:50.365Z,78181.31
2022-07-27T03:32:17.018Z,78181.31
2022-07-27T03:34:43.641Z,78179.22
2022-07-27T03:37:10.142Z,78179.22
2022-07-27T03:39:36.728Z,78179.22
2022-07-27T03:42:03.934Z,78181.31
2022-07-27T03:44:30.554Z,78183.41
2022-07-27T03:46:57.073Z,78177.13
2022-07-27T03:49:23.900Z,78185.50
2022-07-27T03:51:50.611Z,78179.22
2022-07-27T03:54:17.924Z,78185.50
2022-07-27T03:56:45.173Z,78183.41
2022-07-27T03:59:12.073Z,78179.22
2022-07-27T04:01:39.108Z,78179.22
2022-07-27T04:04:05.756Z,78181.31
2022-07-27T04:06:32.246Z,78181.31
2022-07-27T04:09:10.539Z,78185.50
2022-07-27T04:11:43.638Z,78185.50
2022-07-27T04:14:17.062Z,78189.69
2022-07-27T04:16:43.572Z,78187.59
2022-07-27T04:19:10.383Z,78191.78
2022-07-27T04:21:37.964Z,78183.41
2022-07-27T04:24:05.093Z,78187.59
2022-07-27T04:26:31.554Z,78191.78
2022-07-27T04:28:58.106Z,78198.03
2022-07-27T04:31:24.688Z,78200.13
2022-07-27T04:33:51.315Z,78193.88
2022-07-27T04:36:17.882Z,78200.13
2022-07-27T04:38:44.457Z,78195.94
2022-07-27T04:41:10.927Z,78191.78
2022-07-27T04:43:37.448Z,78185.50
2022-07-27T04:46:09.475Z,78191.78
2022-07-27T04:48:38.672Z,78189.69
2022-07-27T04:51:08.002Z,78191.78
2022-07-27T04:53:35.869Z,78183.41
2022-07-27T04:56:02.385Z,78191.78
2022-07-27T04:58:28.871Z,78191.78
2022-07-27T05:00:55.457Z,78185.50
2022-07-27T05:03:22.001Z,78179.22
2022-07-27T05:05:50.129Z,78185.50
2022-07-27T05:08:17.960Z,78183.41
2022-07-27T05:10:44.512Z,78183.41
2022-07-27T05:13:11.223Z,78175.06
2022-07-27T05:15:53.973Z,78181.31
2022-07-27T05:18:22.224Z,78183.41
2022-07-27T05:20:48.773Z,78191.78
2022-07-27T05:23:16.978Z,78187.59
2022-07-27T05:25:43.501Z,78187.59
2022-07-27T05:28:12.169Z,78181.31
2022-07-27T05:30:38.668Z,78187.59
2022-07-27T05:33:05.223Z,78183.41
2022-07-27T05:35:32.212Z,78187.59
2022-07-27T05:37:58.726Z,78183.41
2022-07-27T05:40:26.442Z,78181.31
2022-07-27T05:42:52.962Z,78181.31
2022-07-27T05:45:19.509Z,78177.13
2022-07-27T05:47:46.037Z,78181.31
2022-07-27T05:50:12.599Z,78177.13
2022-07-27T05:52:39.081Z,78183.41
2022-07-27T05:55:06.313Z,78181.31
2022-07-27T05:57:33.334Z,78181.31
2022-07-27T06:00:01.471Z,78185.50
2022-07-27T06:02:30.172Z,78187.59
2022-07-27T06:04:56.681Z,78187.59
2022-07-27T06:07:41.971Z,78177.13
2022-07-27T06:10:09.475Z,78183.41
2022-07-27T06:12:43.349Z,78179.22
2022-07-27T06:15:10.777Z,78185.50
2022-07-27T06:17:37.815Z,78193.88
2022-07-27T06:20:06.271Z,78175.06
2022-07-27T06:22:33.063Z,78187.59
2022-07-27T06:24:59.592Z,78179.22
2022-07-27T06:27:29.487Z,78170.88
2022-07-27T06:29:56.287Z,78179.22
2022-07-27T06:32:22.825Z,78177.13
2022-07-27T06:34:49.542Z,78166.69
2022-07-27T06:37:17.021Z,78164.59
2022-07-27T06:39:46.745Z,78160.41
2022-07-27T06:42:16.083Z,78162.50
2022-07-27T06:44:42.573Z,78154.16
2022-07-27T06:47:09.226Z,78147.88
2022-07-27T06:49:35.736Z,78149.97
2022-07-27T06:52:02.369Z,78145.78
2022-07-27T06:54:29.078Z,78137.41
2022-07-27T06:56:55.542Z,78133.25
2022-07-27T06:59:22.031Z,78131.16
2022-07-27T07:01:49.062Z,78124.88
2022-07-27T07:04:15.955Z,78124.88
2022-07-27T07:06:42.539Z,78118.59
2022-07-27T07:09:09.341Z,78108.16
2022-07-27T07:11:37.451Z,78085.16
2022-07-27T07:14:04.204Z,78070.53
2022-07-27T07:16:30.793Z,78074.69
2022-07-27T07:18:57.270Z,78066.34
2022-07-27T07:21:23.748Z,78057.97
2022-07-27T07:23:50.329Z,78053.81
2022-07-27T07:26:16.855Z,78055.88
2022-07-27T07:28:43.422Z,78051.72
2022-07-27T07:31:10.112Z,78047.53
2022-07-27T07:33:36.711Z,78041.25
2022-07-27T07:36:08.808Z,78034.97
2022-07-27T07:38:39.551Z,78032.91
2022-07-27T07:41:06.087Z,78032.91
2022-07-27T07:43:35.513Z,78026.63
2022-07-27T07:46:02.368Z,78020.34
2022-07-27T07:48:28.864Z,78014.09
2022-07-27T07:50:55.548Z,78012.00
2022-07-27T07:53:22.903Z,78012.00
2022-07-27T07:55:49.554Z,78005.72
2022-07-27T07:58:16.125Z,78012.00
2022-07-27T08:00:43.811Z,78014.09
2022-07-27T08:03:10.614Z,78020.34
2022-07-27T08:05:37.640Z,78014.09
2022-07-27T08:08:04.474Z,78001.53
2022-07-27T08:10:31.061Z,77999.44
2022-07-27T08:12:57.774Z,77989.00
2022-07-27T08:15:34.875Z,77982.72
2022-07-27T08:18:05.844Z,77974.38
2022-07-27T08:20:32.841Z,77970.19
2022-07-27T08:22:59.376Z,77963.91
2022-07-27T08:25:26.042Z,77953.47
2022-07-27T08:27:52.544Z,77961.81
2022-07-27T08:30:22.001Z,77970.19
2022-07-27T08:32:55.078Z,77970.19
2022-07-27T08:35:22.601Z,77978.53
2022-07-27T08:37:49.292Z,77978.53
2022-07-27T08:43:05.198Z,77963.91
2022-07-27T08:45:32.492Z,77976.44
2022-07-27T08:47:59.028Z,77970.19
2022-07-27T08:50:30.612Z,77957.63
2022-07-27T08:53:03.440Z,77955.56
2022-07-27T08:55:38.530Z,77957.63
2022-07-27T08:58:06.011Z,77949.28
2022-07-27T09:00:33.738Z,77959.72
2022-07-27T09:03:00.436Z,77966.00
2022-07-27T09:05:27.536Z,77970.19
2022-07-27T09:08:17.443Z,77966.00
2022-07-27T09:10:44.538Z,77968.09
2022-07-27T09:13:23.390Z,77961.81
2022-07-27T09:16:16.925Z,77959.72
2022-07-27T09:18:42.150Z,77955.56
2022-07-27T09:21:10.437Z,77953.47
2022-07-27T09:23:41.636Z,77940.91
2022-07-27T09:26:31.970Z,77951.38
2022-07-27T09:29:05.364Z,77928.38
2022-07-27T09:31:32.978Z,77892.84
2022-07-27T09:34:01.320Z,77878.19
2022-07-27T09:36:28.341Z,77867.75
2022-07-27T09:39:12.857Z,77846.84
2022-07-27T09:41:45.994Z,77832.22
2022-07-27T09:44:31.321Z,77821.75
2022-07-27T09:46:58.871Z,77830.13
2022-07-27T09:49:27.495Z,77809.22
2022-07-27T09:52:00.189Z,77788.31
2022-07-27T09:54:28.371Z,77719.34
2022-07-27T09:57:02.916Z,77700.53
2022-07-27T09:59:30.045Z,77708.88
2022-07-27T10:01:57.043Z,77729.78
2022-07-27T10:04:24.784Z,77744.41
2022-07-27T10:07:02.929Z,77771.59
2022-07-27T10:09:31.542Z,77773.69
2022-07-27T10:11:58.474Z,77769.50
2022-07-27T10:14:25.708Z,77777.88
2022-07-27T10:16:53.124Z,77790.41
2022-07-27T10:19:37.047Z,77775.78
2022-07-27T10:22:03.794Z,77805.03
2022-07-27T10:24:34.062Z,77813.41
2022-07-27T10:27:18.230Z,77811.31
2022-07-27T10:29:44.751Z,77813.41
2022-07-27T10:32:11.380Z,77796.69
2022-07-27T10:34:42.364Z,77773.69
2022-07-27T10:37:13.898Z,77773.69
2022-07-27T10:39:51.514Z,77765.31
2022-07-27T10:42:22.170Z,77777.88
2022-07-27T10:44:58.673Z,77773.69
2022-07-27T10:47:35.251Z,77767.41
2022-07-27T10:50:20.355Z,77754.88
2022-07-27T10:52:47.723Z,77744.41
2022-07-27T10:55:32.696Z,77748.59
2022-07-27T10:58:14.415Z,77742.34
2022-07-27T11:00:54.615Z,77719.34
2022-07-27T11:03:24.271Z,77708.88
2022-07-27T11:06:04.807Z,77692.16
2022-07-27T11:08:47.745Z,77692.16
2022-07-27T11:11:17.892Z,77675.44
2022-07-27T11:13:45.087Z,77648.28
2022-07-27T11:16:23.956Z,77660.81
2022-07-27T11:19:07.236Z,77637.81
2022-07-27T11:21:36.223Z,77633.63
2022-07-27T11:24:12.022Z,77623.19
2022-07-27T11:26:46.967Z,77593.94
2022-07-27T11:29:15.966Z,77556.31
2022-07-27T11:31:59.515Z,77608.56
2022-07-27T11:34:36.306Z,77621.09
2022-07-27T11:37:05.825Z,77635.72
2022-07-27T11:42:23.249Z,77658.72
2022-07-27T11:44:52.742Z,77685.91
2022-07-27T11:47:21.937Z,77685.91
2022-07-27T11:49:48.633Z,77708.88
2022-07-27T11:52:17.366Z,77721.44
2022-07-27T11:54:44.021Z,77729.78
2022-07-27T11:57:12.823Z,77744.41
2022-07-27T11:59:41.269Z,77742.34
2022-07-27T12:02:10.185Z,77740.25
2022-07-27T12:04:39.247Z,77744.41
2022-07-27T12:07:15.340Z,77740.25
2022-07-27T12:09:56.958Z,77729.78
2022-07-27T12:12:28.116Z,77708.88
2022-07-27T12:14:58.362Z,77694.25
2022-07-27T12:17:35.951Z,77656.63
2022-07-27T12:20:12.635Z,77646.19
2022-07-27T12:22:44.700Z,77629.47
2022-07-27T12:25:17.417Z,77629.47
2022-07-27T12:27:53.241Z,77581.38
2022-07-27T12:30:47.330Z,77589.75
2022-07-27T12:33:30.221Z,77616.91
2022-07-27T12:35:58.286Z,77625.28
2022-07-27T12:38:25.224Z,77631.56
2022-07-27T12:41:00.984Z,77648.28
2022-07-27T12:43:28.645Z,77660.81
2022-07-27T12:45:55.656Z,77631.56
2022-07-27T12:48:23.378Z,77554.22
2022-07-27T12:51:03.151Z,77533.31
2022-07-27T12:53:31.634Z,77543.75
2022-07-27T12:56:00.375Z,77537.50
2022-07-27T12:58:27.164Z,77554.22
2022-07-27T13:00:54.755Z,77556.31
2022-07-27T13:03:21.703Z,77577.19
2022-07-27T13:05:48.797Z,77591.84
2022-07-27T13:08:16.790Z,77575.13
2022-07-27T13:10:44.641Z,77568.84
2022-07-27T13:13:11.419Z,77541.66
2022-07-27T13:15:38.075Z,77533.31
2022-07-27T13:18:04.747Z,77550.03
2022-07-27T13:20:31.974Z,77562.56
2022-07-27T13:22:58.571Z,77537.50
2022-07-27T13:25:25.144Z,77497.78
2022-07-27T13:27:52.404Z,77464.34
2022-07-27T13:30:19.754Z,77447.59
2022-07-27T13:32:47.171Z,77430.88
2022-07-27T13:35:14.036Z,77420.44
2022-07-27T13:37:41.223Z,77418.34
2022-07-27T13:40:09.120Z,77458.06
2022-07-27T13:42:35.898Z,77460.16
2022-07-27T13:45:09.304Z,77468.50
2022-07-27T13:47:37.754Z,77476.88
2022-07-27T13:50:05.211Z,77518.69
2022-07-27T13:52:31.900Z,77539.56
2022-07-27T13:54:58.507Z,77535.41
2022-07-27T13:57:25.035Z,77537.50
2022-07-27T13:59:51.904Z,77516.59
2022-07-27T14:02:20.485Z,77481.06
2022-07-27T14:04:52.005Z,77462.25
2022-07-27T14:07:18.668Z,77472.69
2022-07-27T14:10:03.862Z,77476.88
2022-07-27T14:12:30.536Z,77501.97
2022-07-27T14:14:57.301Z,77522.84
2022-07-27T14:17:23.887Z,77527.03
2022-07-27T14:19:50.367Z,77541.66
2022-07-27T14:22:16.948Z,77531.22
2022-07-27T14:24:43.538Z,77539.56
2022-07-27T14:27:10.206Z,77535.41
2022-07-27T14:29:36.824Z,77535.41
2022-07-27T14:32:03.574Z,77543.75
2022-07-27T14:34:30.183Z,77547.94
2022-07-27T14:36:56.933Z,77541.66
2022-07-27T14:39:23.558Z,77537.50
2022-07-27T14:41:50.185Z,77535.41
2022-07-27T14:44:18.989Z,77545.84
2022-07-27T14:46:46.400Z,77545.84
2022-07-27T14:49:14.921Z,77558.38
2022-07-27T14:51:41.563Z,77564.66
2022-07-27T14:54:08.328Z,77562.56
2022-07-27T14:56:36.536Z,77562.56
2022-07-27T14:59:04.455Z,77573.03
2022-07-27T15:01:31.805Z,77564.66
2022-07-27T15:03:58.540Z,77573.03
2022-07-27T15:06:25.182Z,77581.38
2022-07-27T15:08:51.898Z,77581.38
2022-07-27T15:11:18.540Z,77589.75
2022-07-27T15:13:45.641Z,77587.66
2022-07-27T15:16:12.438Z,77600.19
2022-07-27T15:18:39.268Z,77610.66
2022-07-27T15:21:10.921Z,77614.81
2022-07-27T15:23:41.366Z,77623.19
2022-07-27T15:26:07.944Z,77616.91
2022-07-27T15:28:35.131Z,77623.19
2022-07-27T15:31:01.802Z,77627.38
2022-07-27T15:33:28.425Z,77627.38
2022-07-27T15:35:55.147Z,77625.28
2022-07-27T15:38:21.996Z,77629.47
2022-07-27T15:40:48.543Z,77629.47
2022-07-27T15:43:17.133Z,77619.00
2022-07-27T15:45:48.303Z,77629.47
2022-07-27T15:48:16.551Z,77616.91
2022-07-27T15:50:44.741Z,77616.91
2022-07-27T15:53:11.652Z,77614.81
2022-07-27T15:55:38.632Z,77621.09
2022-07-27T15:58:06.188Z,77619.00
2022-07-27T16:00:38.647Z,77614.81
2022-07-27T16:03:06.419Z,77614.81
2022-07-27T16:05:33.141Z,77623.19
2022-07-27T16:07:59.684Z,77621.09
2022-07-27T16:10:27.447Z,77627.38
2022-07-27T16:12:54.034Z,77629.47
2022-07-27T16:15:40.582Z,77621.09
2022-07-27T16:18:08.416Z,77629.47
2022-07-27T16:20:34.982Z,77614.81
2022-07-27T16:23:01.705Z,77627.38
2022-07-27T16:26:02.525Z,77610.66
2022-07-27T16:28:30.731Z,77619.00
2022-07-27T16:30:57.982Z,77623.19
2022-07-27T16:33:24.938Z,77627.38
2022-07-27T16:35:51.590Z,77619.00
2022-07-27T16:38:18.633Z,77623.19
2022-07-27T16:40:45.255Z,77635.72
2022-07-27T16:43:11.794Z,77637.81
2022-07-27T16:45:38.457Z,77639.91
2022-07-27T16:48:05.181Z,77644.09
2022-07-27T16:50:31.887Z,77652.44
2022-07-27T16:52:58.570Z,77644.09
2022-07-27T16:55:27.489Z,77644.09
2022-07-27T16:57:54.478Z,77648.28
2022-07-27T17:00:21.524Z,77642.00
2022-07-27T17:02:48.179Z,77639.91
2022-07-27T17:05:14.711Z,77648.28
2022-07-27T17:07:42.869Z,77646.19
2022-07-27T17:10:09.617Z,77656.63
2022-07-27T17:12:39.164Z,77660.81
2022-07-27T17:15:06.765Z,77658.72
2022-07-27T17:17:33.368Z,77660.81
2022-07-27T17:19:59.979Z,77658.72
2022-07-27T17:22:26.509Z,77660.81
2022-07-27T17:24:53.068Z,77662.91
2022-07-27T17:27:19.654Z,77656.63
2022-07-27T17:29:46.294Z,77658.72
2022-07-27T17:32:12.940Z,77660.81
2022-07-27T17:34:41.514Z,77656.63
2022-07-27T17:37:08.216Z,77660.81
2022-07-27T17:39:35.479Z,77662.91
2022-07-27T17:42:02.103Z,77665.00
2022-07-27T17:44:28.873Z,77662.91
2022-07-27T17:46:55.631Z,77669.16
2022-07-27T17:49:22.386Z,77677.53
2022-07-27T17:51:49.020Z,77679.63
2022-07-27T17:54:15.546Z,77681.72
2022-07-27T17:56:42.090Z,77687.97
2022-07-27T17:59:34.746Z,77692.16
2022-07-27T18:01:56.737Z,77685.91
2022-07-27T18:04:23.422Z,77694.25
2022-07-27T18:06:50.105Z,77698.44
2022-07-27T18:09:17.390Z,77698.44
2022-07-27T18:11:44.721Z,77702.63
2022-07-27T18:14:11.362Z,77702.63
2022-07-27T18:16:40.591Z,77721.44
2022-07-27T18:19:08.049Z,77715.16
2022-07-27T18:21:35.609Z,77715.16
2022-07-27T18:24:02.511Z,77715.16
2022-07-27T18:26:29.146Z,77710.97
2022-07-27T18:28:57.618Z,77729.78
2022-07-27T18:31:24.631Z,77725.59
2022-07-27T18:33:54.315Z,77717.25
2022-07-27T18:36:21.461Z,77723.53
2022-07-27T18:38:49.954Z,77733.97
2022-07-27T18:41:17.640Z,77733.97
2022-07-27T18:43:51.083Z,77731.88
2022-07-27T18:46:21.794Z,77736.06
2022-07-27T18:48:48.968Z,77740.25
2022-07-27T18:51:16.052Z,77746.50
2022-07-27T18:53:44.081Z,77750.69
2022-07-27T18:56:11.031Z,77748.59
2022-07-27T18:58:37.648Z,77752.78
2022-07-27T19:01:04.284Z,77759.06
2022-07-27T19:03:30.787Z,77761.16
2022-07-27T19:05:58.681Z,77771.59
2022-07-27T19:08:25.359Z,77777.88
2022-07-27T19:10:52.025Z,77782.06
2022-07-27T19:13:18.608Z,77788.31
2022-07-27T19:15:45.400Z,77798.78
2022-07-27T19:18:12.004Z,77794.59
2022-07-27T19:20:38.685Z,77796.69
2022-07-27T19:23:06.199Z,77802.94
2022-07-27T19:25:33.777Z,77802.94
2022-07-27T19:28:00.998Z,77809.22
2022-07-27T19:30:27.759Z,77821.75
2022-07-27T19:32:54.419Z,77832.22
2022-07-27T19:35:21.019Z,77834.31
2022-07-27T19:37:47.564Z,77840.56
2022-07-27T19:40:42.974Z,77859.38
2022-07-27T19:43:00.581Z,77861.47
2022-07-27T19:45:27.133Z,77859.38
2022-07-27T19:47:53.637Z,77874.03
2022-07-27T19:50:20.185Z,77880.28
2022-07-27T19:52:46.690Z,77886.56
2022-07-27T19:55:13.296Z,77892.84
2022-07-27T19:57:39.807Z,77899.09
2022-07-27T20:00:08.744Z,77911.66
2022-07-27T20:02:35.387Z,77920.00
2022-07-27T20:05:01.996Z,77930.47
2022-07-27T20:07:28.584Z,77943.00
2022-07-27T20:09:55.159Z,77951.38
2022-07-27T20:12:21.766Z,77959.72
2022-07-27T20:14:48.244Z,77970.19
2022-07-27T20:17:14.851Z,77972.28
2022-07-27T20:19:41.308Z,77980.63
2022-07-27T20:22:07.796Z,77995.28
2022-07-27T20:24:34.332Z,78014.09
2022-07-27T20:27:00.918Z,78022.44
2022-07-27T20:29:31.670Z,78026.63
2022-07-27T20:31:59.877Z,78039.16
2022-07-27T20:34:26.402Z,78041.25
2022-07-27T20:36:54.555Z,78041.25
2022-07-27T20:39:21.235Z,78055.88
2022-07-27T20:41:47.949Z,78057.97
2022-07-27T20:44:14.443Z,78064.25
2022-07-27T20:46:40.962Z,78062.16
2022-07-27T20:49:07.505Z,78064.25
2022-07-27T20:51:34.334Z,78066.34
2022-07-27T20:54:00.925Z,78070.53
2022-07-27T20:56:27.424Z,78072.63
2022-07-27T20:58:53.943Z,78080.97
2022-07-27T21:01:20.527Z,78091.44
2022-07-27T21:03:47.106Z,78087.25
2022-07-27T21:06:13.593Z,78099.78
2022-07-27T21:08:45.961Z,78112.34
2022-07-27T21:11:13.624Z,78114.44
2022-07-27T21:13:40.334Z,78118.59
2022-07-27T21:16:06.977Z,78122.78
2022-07-27T21:18:33.594Z,78126.97
2022-07-27T21:21:00.143Z,78135.31
2022-07-27T21:23:45.201Z,78147.88
2022-07-27T21:26:11.706Z,78141.59
2022-07-27T21:28:42.003Z,78149.97
2022-07-27T21:31:08.830Z,78147.88
2022-07-27T21:33:39.575Z,78154.16
2022-07-27T21:36:06.832Z,78158.31
2022-07-27T21:38:33.327Z,78156.22
2022-07-27T21:40:59.863Z,78170.88
2022-07-27T21:43:26.348Z,78175.06
2022-07-27T21:45:52.910Z,78175.06
2022-07-27T21:48:19.417Z,78185.50
2022-07-27T21:50:45.947Z,78185.50
2022-07-27T21:53:12.499Z,78181.31
2022-07-27T21:55:40.909Z,78198.03
2022-07-27T21:58:08.294Z,78202.22
2022-07-27T22:00:34.820Z,78206.41
2022-07-27T22:03:01.307Z,78208.50
2022-07-27T22:05:27.876Z,78216.84
2022-07-27T22:07:54.376Z,78227.31
2022-07-27T22:10:20.992Z,78233.59
2022-07-27T22:12:47.496Z,78235.69
2022-07-27T22:15:14.076Z,78246.13
2022-07-27T22:17:50.225Z,78244.03
2022-07-27T22:20:18.353Z,78246.13
2022-07-27T22:22:45.000Z,78252.41
2022-07-27T22:25:11.539Z,78260.75
2022-07-27T22:27:38.106Z,78260.75
2022-07-27T22:30:05.651Z,78275.41
2022-07-27T22:32:32.144Z,78279.56
2022-07-27T22:34:58.720Z,78271.22
2022-07-27T22:37:25.637Z,78277.47
2022-07-27T22:39:52.275Z,78279.56
2022-07-27T22:42:18.957Z,78279.56
2022-07-27T22:44:45.549Z,78296.31
2022-07-27T22:47:12.428Z,78281.66
2022-07-27T22:49:38.979Z,78287.94
2022-07-27T22:52:05.845Z,78296.31
2022-07-27T22:54:36.647Z,78296.31
2022-07-27T22:57:04.272Z,78296.31
2022-07-27T22:59:30.934Z,78296.31
2022-07-27T23:01:57.588Z,78294.22
2022-07-27T23:04:24.274Z,78298.38
2022-07-27T23:06:51.016Z,78304.66
2022-07-27T23:09:17.713Z,78319.28
2022-07-27T23:11:44.681Z,78325.56
2022-07-27T23:14:12.373Z,78325.56
2022-07-27T23:16:39.380Z,78336.03
2022-07-27T23:19:05.973Z,78348.56
2022-07-27T23:21:32.550Z,78346.47
2022-07-27T23:23:59.019Z,78354.84
2022-07-27T23:26:26.265Z,78354.84
2022-07-27T23:28:53.612Z,78354.84
2022-07-27T23:31:20.235Z,78350.66
2022-07-27T23:33:47.037Z,78336.03
2022-07-27T23:36:13.667Z,78336.03
2022-07-27T23:38:40.162Z,78331.84
2022-07-27T23:41:06.678Z,78331.84
2022-07-27T23:43:33.252Z,78329.75
2022-07-27T23:45:59.814Z,78333.94
2022-07-27T23:48:26.331Z,78336.03
2022-07-27T23:50:56.015Z,78333.94
2022-07-27T23:53:22.660Z,78340.19
2022-07-27T23:55:49.155Z,78333.94
2022-07-27T23:58:15.649Z,78336.03
